Time;durP1;ratioP1;P1;durP2;ratioP2;P2;SDS_P1;SDS_P2;PMS_P1;PMS_P2;Temp;Humidity;BMP_temperature;BMP_pressure;BME280_temperature;BME280_humidity;BME280_pressure;Samples;Min_cycle;Max_cycle;Signal;HPM_P1;HPM_P2
2024/01/17 00:00:22;;;;;;;15.07;11.30;;;;;;;-4.25;100.00;150291.31;5022727;28;20456;-81
2024/01/17 00:02:48;;;;;;;15.63;11.23;;;;;;;-4.23;100.00;150296.44;5013168;28;20937;-81
2024/01/17 00:05:15;;;;;;;18.00;11.80;;;;;;;-4.22;100.00;150299.00;5006842;28;20452;-81
2024/01/17 00:07:42;;;;;;;16.40;10.70;;;;;;;-4.19;100.00;150305.41;5010944;28;20442;-81
2024/01/17 00:10:10;;;;;;;14.40;10.50;;;;;;;-4.18;100.00;150307.97;5004841;28;20787;-81
2024/01/17 00:12:37;;;;;;;17.07;12.37;;;;;;;-4.21;100.00;150301.59;5010494;28;20870;-81
2024/01/17 00:15:05;;;;;;;17.40;11.60;;;;;;;-4.23;100.00;150296.44;4986939;28;20827;-81
2024/01/17 00:17:31;;;;;;;14.00;10.50;;;;;;;-4.28;100.00;150283.66;5006892;28;20443;-81
2024/01/17 00:19:58;;;;;;;16.57;11.83;;;;;;;-4.33;100.00;150272.16;5010312;28;20836;-81
2024/01/17 00:22:25;;;;;;;15.00;12.13;;;;;;;-4.31;100.00;150277.28;5023919;28;20789;-81
2024/01/17 00:24:52;;;;;;;17.03;12.97;;;;;;;-4.28;100.00;150283.66;5002469;28;20458;-81
2024/01/17 00:27:23;;;;;;;18.57;11.70;;;;;;;-4.25;100.00;150291.31;4994279;28;20479;-81
2024/01/17 00:29:56;;;;;;;17.27;10.83;;;;;;;-4.24;100.00;150292.63;5023177;28;20433;-80
2024/01/17 00:32:23;;;;;;;15.10;12.30;;;;;;;-4.21;100.00;150301.59;5009563;28;20477;-81
2024/01/17 00:34:49;;;;;;;15.27;11.47;;;;;;;-4.23;100.00;150295.16;4992312;28;20408;-81
2024/01/17 00:37:16;;;;;;;14.47;10.30;;;;;;;-4.19;100.00;150305.41;5010306;28;20463;-81
2024/01/17 00:39:43;;;;;;;14.37;10.50;;;;;;;-4.14;100.00;150319.47;5011102;28;21016;-81
2024/01/17 00:42:09;;;;;;;12.73;11.07;;;;;;;-4.13;100.00;150322.00;4994183;28;20483;-81
2024/01/17 00:44:38;;;;;;;14.90;11.17;;;;;;;-4.11;100.00;150327.13;5010244;28;20447;-81
2024/01/17 00:47:06;;;;;;;20.83;11.60;;;;;;;-4.05;100.00;150342.44;4996283;28;20455;-81
2024/01/17 00:49:33;;;;;;;18.53;12.80;;;;;;;-4.03;100.00;150347.59;5010745;28;20436;-81
2024/01/17 00:51:59;;;;;;;14.80;11.97;;;;;;;-4.03;100.00;150347.59;5009909;28;20467;-80
2024/01/17 00:54:26;;;;;;;13.90;10.37;;;;;;;-4.03;100.00;150347.59;4989234;28;20824;-81
2024/01/17 00:56:53;;;;;;;15.87;11.70;;;;;;;-4.02;100.00;150348.84;5013751;28;20497;-81
2024/01/17 00:59:19;;;;;;;15.80;11.60;;;;;;;-4.02;100.00;150348.84;5006143;28;20864;-81
2024/01/17 01:01:46;;;;;;;13.63;10.97;;;;;;;-4.00;100.00;150355.28;5026501;28;20443;-81
2024/01/17 01:04:13;;;;;;;14.30;11.00;;;;;;;-3.98;100.00;150360.38;5007206;28;20801;-81
2024/01/17 01:06:40;;;;;;;15.33;10.80;;;;;;;-3.95;100.00;150366.75;5008688;28;20448;-81
2024/01/17 01:09:06;;;;;;;16.13;10.73;;;;;;;-3.95;100.00;150366.75;4996401;28;20456;-81
2024/01/17 01:11:33;;;;;;;15.53;11.23;;;;;;;-3.96;100.00;150365.47;4988771;28;20436;-80
2024/01/17 01:14:00;;;;;;;14.70;10.07;;;;;;;-3.97;100.00;150361.66;5004037;28;20813;-81
2024/01/17 01:16:27;;;;;;;16.27;10.93;;;;;;;-3.97;100.00;150361.66;4993627;28;20455;-81
2024/01/17 01:18:53;;;;;;;16.13;12.47;;;;;;;-3.96;100.00;150365.47;5005856;28;20460;-81
2024/01/17 01:21:21;;;;;;;16.07;10.47;;;;;;;-3.94;100.00;150369.28;5025903;28;20504;-81
2024/01/17 01:23:48;;;;;;;13.97;10.80;;;;;;;-3.93;100.00;150373.16;5011041;28;20456;-81
2024/01/17 01:26:15;;;;;;;13.47;10.63;;;;;;;-3.92;100.00;150375.69;5000431;28;20429;-81
2024/01/17 01:28:41;;;;;;;15.20;10.77;;;;;;;-3.93;100.00;150373.16;5024492;28;20451;-81
2024/01/17 01:31:09;;;;;;;12.50;9.63;;;;;;;-3.91;100.00;150378.25;5008502;28;20523;-81
2024/01/17 01:33:36;;;;;;;14.67;11.10;;;;;;;-3.89;100.00;150383.34;5009179;28;20834;-81
2024/01/17 01:36:02;;;;;;;15.57;11.60;;;;;;;-3.88;100.00;150385.94;5010312;28;20472;-81
2024/01/17 01:38:30;;;;;;;13.40;10.87;;;;;;;-3.86;100.00;150391.03;4994174;28;20513;-81
2024/01/17 01:40:58;;;;;;;14.20;10.53;;;;;;;-3.84;100.00;150396.16;4992562;28;20468;-81
2024/01/17 01:43:26;;;;;;;18.20;12.33;;;;;;;-3.81;100.00;150403.81;4990390;28;20426;-81
2024/01/17 01:46:10;;;;;;;15.63;11.70;;;;;;;-3.79;100.00;150408.97;5022818;28;20540;-81
2024/01/17 01:48:36;;;;;;;19.43;12.20;;;;;;;-3.77;100.00;150414.06;5021475;28;20522;-81
2024/01/17 01:51:04;;;;;;;14.93;11.50;;;;;;;-3.76;100.00;150416.59;4989209;28;20440;-80
2024/01/17 01:53:33;;;;;;;15.70;11.00;;;;;;;-3.73;100.00;150423.00;4987866;28;20834;-81
2024/01/17 01:56:00;;;;;;;15.80;10.40;;;;;;;-3.72;100.00;150426.84;5002285;28;20462;-81
2024/01/17 01:58:26;;;;;;;15.10;10.77;;;;;;;-3.67;100.00;150437.06;5019481;28;20454;-80
2024/01/17 02:00:53;;;;;;;14.00;9.87;;;;;;;-3.66;100.00;150440.94;4990695;28;20782;-81
2024/01/17 02:03:21;;;;;;;17.90;10.70;;;;;;;-3.63;100.00;150447.31;5013671;28;20458;-81
2024/01/17 02:05:48;;;;;;;12.50;10.63;;;;;;;-3.61;100.00;150453.72;5026935;28;20475;-81
2024/01/17 02:08:15;;;;;;;16.27;10.80;;;;;;;-3.57;100.00;150462.69;5003783;28;20634;-80
2024/01/17 02:10:42;;;;;;;18.07;11.80;;;;;;;-3.55;100.00;150467.78;5026226;28;21041;-81
2024/01/17 02:13:09;;;;;;;12.90;10.13;;;;;;;-3.53;100.00;150474.19;5022294;28;20486;-81
2024/01/17 02:15:36;;;;;;;14.63;11.77;;;;;;;-3.51;100.00;150478.00;4988784;28;20467;-81
2024/01/17 02:18:03;;;;;;;15.73;9.97;;;;;;;-3.49;100.00;150483.09;4988006;28;20542;-80
2024/01/17 02:20:29;;;;;;;12.70;9.40;;;;;;;-3.46;100.00;150490.78;5012930;28;20432;-81
2024/01/17 02:22:56;;;;;;;12.57;10.17;;;;;;;-3.45;100.00;150494.66;5025386;28;20448;-81
2024/01/17 02:25:24;;;;;;;13.80;10.40;;;;;;;-3.43;100.00;150499.75;5005246;28;20795;-81
2024/01/17 02:27:50;;;;;;;14.23;9.50;;;;;;;-3.40;100.00;150506.16;4999433;28;20472;-82
2024/01/17 02:30:17;;;;;;;15.50;10.67;;;;;;;-3.39;100.00;150508.72;5005885;28;20432;-81
2024/01/17 02:32:44;;;;;;;13.90;10.60;;;;;;;-3.38;100.00;150512.53;5015106;28;20487;-81
2024/01/17 02:35:11;;;;;;;13.57;10.93;;;;;;;-3.37;100.00;150513.84;5008289;28;20876;-81
2024/01/17 02:37:37;;;;;;;14.50;10.23;;;;;;;-3.37;100.00;150515.13;5010119;28;20451;-80
2024/01/17 02:40:05;;;;;;;16.47;10.60;;;;;;;-3.37;100.00;150513.84;5025312;28;20450;-80
2024/01/17 02:42:33;;;;;;;11.23;9.27;;;;;;;-3.36;100.00;150516.41;5008778;28;20475;-80
2024/01/17 02:44:59;;;;;;;15.57;9.60;;;;;;;-3.32;100.00;150527.91;4987506;28;20703;-81
2024/01/17 02:47:26;;;;;;;13.60;8.70;;;;;;;-3.28;100.00;150538.13;4990411;28;20463;-81
2024/01/17 02:49:53;;;;;;;12.20;9.00;;;;;;;-3.22;100.00;150552.19;5000405;28;21004;-81
2024/01/17 02:52:19;;;;;;;13.30;9.00;;;;;;;-3.21;100.00;150556.06;5005764;28;21035;-81
2024/01/17 02:54:46;;;;;;;14.80;9.30;;;;;;;-3.20;100.00;150558.59;5004082;28;20441;-81
2024/01/17 02:57:12;;;;;;;11.50;8.97;;;;;;;-3.18;100.00;150562.47;4994197;28;20865;-81
2024/01/17 02:59:41;;;;;;;14.17;9.80;;;;;;;-3.14;100.00;150573.97;4991811;28;20444;-80
2024/01/17 03:02:08;;;;;;;13.97;9.03;;;;;;;-3.08;100.00;150588.03;4991674;28;20546;-81
2024/01/17 03:04:35;;;;;;;14.20;8.93;;;;;;;-3.05;100.00;150595.72;5006653;28;20448;-81
2024/01/17 03:07:01;;;;;;;14.50;9.20;;;;;;;-3.00;100.00;150608.50;5017947;28;20444;-81
2024/01/17 03:09:28;;;;;;;13.17;10.00;;;;;;;-2.96;100.00;150618.72;5017759;28;20515;-81
2024/01/17 03:11:54;;;;;;;14.60;9.90;;;;;;;-2.97;100.00;150616.19;5010187;28;20462;-80
2024/01/17 03:14:22;;;;;;;13.60;9.63;;;;;;;-2.98;100.00;150613.63;5017327;28;20546;-81
2024/01/17 03:16:49;;;;;;;15.13;10.00;;;;;;;-2.94;100.00;150623.88;4994342;28;20513;-81
2024/01/17 03:19:16;;;;;;;13.87;10.33;;;;;;;-2.94;100.00;150623.88;5025044;28;20455;-81
2024/01/17 03:21:46;;;;;;;16.10;10.13;;;;;;;-2.93;100.00;150625.13;4991443;28;20864;-81
2024/01/17 03:24:12;;;;;;;14.70;9.50;;;;;;;-2.93;100.00;150625.13;5021728;28;20819;-81
2024/01/17 03:26:39;;;;;;;17.10;11.90;;;;;;;-2.95;100.00;150621.31;5005612;28;20467;-81
2024/01/17 03:29:05;;;;;;;13.97;10.60;;;;;;;-2.96;100.00;150618.72;4986731;28;20773;-81
2024/01/17 03:31:32;;;;;;;16.27;11.63;;;;;;;-2.98;100.00;150612.34;5002976;28;20474;-80
2024/01/17 03:34:00;;;;;;;14.07;10.50;;;;;;;-2.99;100.00;150609.81;5017520;28;20484;-81
2024/01/17 03:36:26;;;;;;;16.70;11.47;;;;;;;-2.99;100.00;150609.81;5011025;28;20478;-80
2024/01/17 03:38:54;;;;;;;15.60;11.10;;;;;;;-3.00;100.00;150607.22;5002490;28;20471;-81
2024/01/17 03:41:20;;;;;;;14.60;10.50;;;;;;;-3.00;100.00;150608.50;5006600;28;20525;-81
2024/01/17 03:43:47;;;;;;;17.07;11.07;;;;;;;-2.97;100.00;150616.19;4997591;28;20472;-80
2024/01/17 03:46:13;;;;;;;15.97;11.40;;;;;;;-2.95;100.00;150620.00;5011236;28;20443;-80
2024/01/17 03:48:40;;;;;;;15.53;9.70;;;;;;;-2.94;100.00;150623.88;4983744;28;20507;-80
2024/01/17 03:51:08;;;;;;;14.30;10.67;;;;;;;-2.93;100.00;150626.41;5025507;28;20505;-80
2024/01/17 03:53:34;;;;;;;15.67;10.40;;;;;;;-2.90;100.00;150632.81;5011841;28;20475;-80
2024/01/17 03:56:01;;;;;;;15.13;10.80;;;;;;;-2.86;100.00;150644.31;5008459;28;20542;-81
2024/01/17 03:58:28;;;;;;;16.10;10.73;;;;;;;-2.84;100.00;150649.47;5024868;28;20930;-81
2024/01/17 04:00:54;;;;;;;15.30;10.43;;;;;;;-2.83;100.00;150652.00;5005753;28;20447;-81
2024/01/17 04:03:21;;;;;;;14.80;10.60;;;;;;;-2.82;100.00;150653.28;5013132;28;20451;-81
2024/01/17 04:05:47;;;;;;;15.87;10.03;;;;;;;-2.80;100.00;150659.69;5019404;28;20853;-80
2024/01/17 04:08:15;;;;;;;14.67;10.17;;;;;;;-2.77;100.00;150667.38;5010865;28;20464;-80
2024/01/17 04:10:42;;;;;;;12.00;8.90;;;;;;;-2.70;100.00;150685.28;4992063;28;20762;-80
2024/01/17 04:13:08;;;;;;;15.10;9.80;;;;;;;-2.61;100.00;150708.34;5008621;28;20482;-80
2024/01/17 04:15:35;;;;;;;14.33;9.43;;;;;;;-2.51;100.00;150732.66;5010841;28;20493;-81
2024/01/17 04:18:01;;;;;;;12.20;9.17;;;;;;;-2.45;100.00;150748.03;5011314;28;20498;-81
2024/01/17 04:20:28;;;;;;;16.70;10.20;;;;;;;-2.37;100.00;150767.22;5026314;28;20456;-81
2024/01/17 04:22:55;;;;;;;13.37;9.50;;;;;;;-2.30;100.00;150786.41;4979199;28;20464;-81
2024/01/17 04:25:23;;;;;;;14.80;9.70;;;;;;;-2.22;100.00;150805.63;5006988;28;20799;-81
2024/01/17 04:27:49;;;;;;;15.60;11.13;;;;;;;-2.21;100.00;150808.19;5002794;28;20448;-81
2024/01/17 04:30:16;;;;;;;18.53;10.67;;;;;;;-2.15;100.00;150823.59;5003853;28;20491;-81
2024/01/17 04:32:42;;;;;;;16.20;10.83;;;;;;;-2.17;100.00;150818.47;4994240;28;20459;-79
2024/01/17 04:35:10;;;;;;;16.50;10.40;;;;;;;-2.17;100.00;150819.72;5011442;28;20432;-81
2024/01/17 04:37:37;;;;;;;15.73;11.20;;;;;;;-2.15;100.00;150823.59;5029240;28;20455;-81
2024/01/17 04:40:06;;;;;;;15.70;12.07;;;;;;;-2.11;100.00;150835.09;5006462;28;20452;-80
2024/01/17 04:42:34;;;;;;;16.73;11.60;;;;;;;-2.11;100.00;150833.81;4995232;28;20485;-79
2024/01/17 04:45:00;;;;;;;15.00;10.90;;;;;;;-2.12;100.00;150831.28;5002526;28;20502;-80
2024/01/17 04:47:27;;;;;;;17.53;11.93;;;;;;;-2.13;100.00;150828.69;5026524;28;20459;-79
2024/01/17 04:49:53;;;;;;;15.83;11.50;;;;;;;-2.15;100.00;150824.88;5010724;28;20448;-80
2024/01/17 04:52:20;;;;;;;19.90;12.70;;;;;;;-2.15;100.00;150824.88;4994868;28;20551;-80
2024/01/17 04:54:47;;;;;;;17.60;13.03;;;;;;;-2.13;100.00;150828.69;5029316;28;20490;-80
2024/01/17 04:57:14;;;;;;;18.60;12.37;;;;;;;-2.10;100.00;150836.38;4986893;28;20469;-80
2024/01/17 04:59:42;;;;;;;15.50;12.00;;;;;;;-2.09;100.00;150840.22;5026903;28;20451;-80
2024/01/17 05:02:09;;;;;;;17.03;12.20;;;;;;;-2.08;100.00;150842.78;5007670;28;20482;-80
2024/01/17 05:04:36;;;;;;;17.77;12.90;;;;;;;-2.07;100.00;150845.38;5010500;28;20448;-80
2024/01/17 05:07:02;;;;;;;13.73;9.63;;;;;;;-2.03;100.00;150854.31;5007516;28;20451;-80
2024/01/17 05:09:29;;;;;;;14.97;10.77;;;;;;;-1.94;100.00;150877.38;5009903;28;20463;-83
2024/01/17 05:11:56;;;;;;;14.80;9.67;;;;;;;-1.84;100.00;150902.97;5004604;28;20487;-81
2024/01/17 05:14:23;;;;;;;13.87;10.37;;;;;;;-1.73;100.00;150929.88;5025899;28;20470;-81
2024/01/17 05:16:51;;;;;;;15.03;9.77;;;;;;;-1.64;100.00;150954.22;5008913;28;20447;-81
2024/01/17 05:19:18;;;;;;;14.10;10.37;;;;;;;-1.52;100.00;150985.00;5019330;28;20971;-81
2024/01/17 05:21:44;;;;;;;14.77;9.40;;;;;;;-1.49;100.00;150991.41;5006978;28;20460;-81
2024/01/17 05:24:11;;;;;;;16.63;10.77;;;;;;;-1.53;100.00;150982.41;4994127;28;20440;-81
2024/01/17 05:26:39;;;;;;;15.73;10.50;;;;;;;-1.55;100.00;150977.28;5005885;28;20462;-81
2024/01/17 05:29:06;;;;;;;13.37;10.37;;;;;;;-1.60;100.00;150964.50;5007726;28;20871;-81
2024/01/17 05:31:32;;;;;;;14.00;10.50;;;;;;;-1.60;100.00;150964.50;5008986;28;20959;-80
2024/01/17 05:34:13;;;;;;;17.10;11.13;;;;;;;-1.54;100.00;150979.88;5026778;28;20828;-81
2024/01/17 05:36:43;;;;;;;15.37;10.97;;;;;;;-1.47;100.00;150997.81;5032613;28;20475;-80
2024/01/17 05:39:13;;;;;;;15.00;10.97;;;;;;;-1.43;100.00;151006.78;5016522;28;20946;-81
2024/01/17 05:41:39;;;;;;;18.30;11.47;;;;;;;-1.38;100.00;151020.84;5011737;28;20587;-80
2024/01/17 05:44:06;;;;;;;14.13;10.10;;;;;;;-1.34;100.00;151029.84;4989842;28;20447;-79
2024/01/17 05:46:32;;;;;;;17.07;11.03;;;;;;;-1.33;100.00;151033.69;5014124;28;20444;-80
2024/01/17 05:48:59;;;;;;;17.43;12.60;;;;;;;-1.34;100.00;151031.13;5022188;28;20463;-80
2024/01/17 05:51:27;;;;;;;14.73;11.80;;;;;;;-1.26;100.00;151051.63;5019815;28;20448;-80
2024/01/17 05:53:53;;;;;;;17.83;12.53;;;;;;;-1.12;100.00;151086.25;5022236;28;20575;-80
2024/01/17 05:56:20;;;;;;;16.83;11.70;;;;;;;-1.10;100.00;151091.38;4993427;28;20451;-80
2024/01/17 05:58:46;;;;;;;21.20;12.83;;;;;;;-1.05;100.00;151104.19;4986321;28;20456;-80
2024/01/17 06:01:13;;;;;;;15.27;10.93;;;;;;;-0.99;100.00;151118.28;5004567;28;20464;-80
2024/01/17 06:03:40;;;;;;;17.13;12.33;;;;;;;-0.93;100.00;151133.69;5009782;28;20450;-80
2024/01/17 06:06:07;;;;;;;15.53;11.73;;;;;;;-0.90;100.00;151142.63;5003604;28;20514;-80
2024/01/17 06:08:35;;;;;;;20.30;12.10;;;;;;;-0.88;100.00;151147.78;5013090;28;20514;-80
2024/01/17 06:11:02;;;;;;;16.57;12.10;;;;;;;-0.85;100.00;151155.44;5015746;28;20816;-80
2024/01/17 06:13:29;;;;;;;19.00;11.53;;;;;;;-0.85;100.00;151155.44;4996793;28;20475;-80
2024/01/17 06:15:56;;;;;;;15.33;11.47;;;;;;;-0.82;100.00;151161.91;5015082;28;20471;-79
2024/01/17 06:18:23;;;;;;;18.97;11.60;;;;;;;-0.78;100.00;151172.13;5015594;28;20464;-79
2024/01/17 06:20:49;;;;;;;16.80;11.77;;;;;;;-0.80;100.00;151167.00;5014010;28;20551;-79
2024/01/17 06:23:16;;;;;;;16.47;11.63;;;;;;;-0.76;100.00;151178.53;5013166;28;20460;-79
2024/01/17 06:25:44;;;;;;;21.20;12.37;;;;;;;-0.74;100.00;151182.38;5015741;28;20502;-80
2024/01/17 06:28:10;;;;;;;17.47;11.73;;;;;;;-0.75;100.00;151179.84;5015197;28;20455;-80
2024/01/17 06:30:38;;;;;;;15.00;11.20;;;;;;;-0.72;100.00;151187.53;4998761;28;20447;-79
2024/01/17 06:33:05;;;;;;;17.40;11.20;;;;;;;-0.73;100.00;151184.94;4980300;28;20463;-79
2024/01/17 06:35:32;;;;;;;20.63;12.23;;;;;;;-0.75;100.00;151181.13;5000097;28;20499;-80
2024/01/17 06:37:58;;;;;;;16.07;12.13;;;;;;;-0.77;100.00;151175.97;5012887;28;20513;-79
2024/01/17 06:40:25;;;;;;;18.40;13.00;;;;;;;-0.77;100.00;151175.97;4996649;28;20460;-79
2024/01/17 06:42:53;;;;;;;16.67;11.77;;;;;;;-0.74;100.00;151182.38;5014938;28;20455;-80
2024/01/17 06:45:20;;;;;;;16.63;11.70;;;;;;;-0.73;100.00;151186.25;5015115;28;20431;-79
2024/01/17 06:47:47;;;;;;;16.60;12.23;;;;;;;-0.75;100.00;151181.13;5020227;28;20455;-79
2024/01/17 06:50:14;;;;;;;18.30;13.30;;;;;;;-0.75;100.00;151179.84;5018946;28;20467;-80
2024/01/17 06:52:40;;;;;;;21.50;13.07;;;;;;;-0.77;100.00;151175.97;5022279;28;20475;-79
2024/01/17 06:55:08;;;;;;;17.17;12.60;;;;;;;-0.81;100.00;151164.44;5000127;28;20478;-79
2024/01/17 06:57:34;;;;;;;19.77;14.10;;;;;;;-0.79;100.00;151169.56;5005890;28;20502;-80
2024/01/17 07:00:04;;;;;;;19.33;12.87;;;;;;;-0.79;100.00;151169.56;5003556;28;20449;-80
2024/01/17 07:02:30;;;;;;;19.27;13.57;;;;;;;-0.81;100.00;151164.44;5017605;28;20464;-79
2024/01/17 07:04:57;;;;;;;20.63;13.60;;;;;;;-0.78;100.00;151172.13;5000930;28;20453;-80
2024/01/17 07:07:23;;;;;;;20.23;12.67;;;;;;;-0.77;100.00;151174.72;5000016;28;20464;-79
2024/01/17 07:09:50;;;;;;;19.37;12.90;;;;;;;-0.76;100.00;151177.25;5007293;28;20455;-80
2024/01/17 07:12:16;;;;;;;17.37;13.00;;;;;;;-0.80;100.00;151168.31;5017043;28;20456;-80
2024/01/17 07:14:43;;;;;;;22.10;13.77;;;;;;;-0.82;100.00;151161.91;5016459;28;20471;-80
2024/01/17 07:17:11;;;;;;;19.17;13.27;;;;;;;-0.81;100.00;151164.44;5000408;28;20453;-80
2024/01/17 07:19:37;;;;;;;19.70;12.67;;;;;;;-0.81;100.00;151164.44;4998503;28;20480;-80
2024/01/17 07:22:04;;;;;;;20.60;14.77;;;;;;;-0.82;100.00;151163.16;5017595;28;20862;-79
2024/01/17 07:24:31;;;;;;;20.80;13.20;;;;;;;-0.86;100.00;151152.91;5001658;28;20539;-80
2024/01/17 07:26:57;;;;;;;19.37;14.10;;;;;;;-0.85;100.00;151154.19;5000150;28;20463;-80
2024/01/17 07:29:24;;;;;;;17.90;13.30;;;;;;;-0.89;100.00;151143.91;5017779;28;20463;-80
2024/01/17 07:31:50;;;;;;;16.90;12.40;;;;;;;-0.88;100.00;151146.50;5017254;28;20490;-79
2024/01/17 07:34:18;;;;;;;19.10;13.10;;;;;;;-0.90;100.00;151142.63;5000730;28;20486;-79
2024/01/17 07:36:45;;;;;;;23.77;15.43;;;;;;;-0.88;100.00;151147.78;5000112;28;20455;-80
2024/01/17 07:39:14;;;;;;;24.77;13.70;;;;;;;-0.89;100.00;151145.22;5003035;28;20510;-80
2024/01/17 07:41:40;;;;;;;20.37;14.70;;;;;;;-0.86;100.00;151151.63;5003137;28;20475;-80
2024/01/17 07:44:07;;;;;;;18.73;13.80;;;;;;;-0.82;100.00;151161.91;5001982;28;20455;-80
2024/01/17 07:46:34;;;;;;;18.67;13.90;;;;;;;-0.80;100.00;151168.31;5017990;28;20457;-80
2024/01/17 07:49:00;;;;;;;20.60;14.33;;;;;;;-0.80;100.00;151167.00;5016285;28;20930;-80
2024/01/17 07:51:28;;;;;;;18.00;13.17;;;;;;;-0.79;100.00;151169.56;5020792;28;20464;-81
2024/01/17 07:53:56;;;;;;;20.43;14.40;;;;;;;-0.79;100.00;151169.56;5000362;28;20475;-79
2024/01/17 07:56:23;;;;;;;18.90;14.00;;;;;;;-0.76;100.00;151177.25;5002005;28;20550;-80
2024/01/17 07:58:50;;;;;;;24.50;15.90;;;;;;;-0.74;100.00;151182.38;5018015;28;20484;-80
2024/01/17 08:01:17;;;;;;;21.53;14.97;;;;;;;-0.64;100.00;151208.06;5005982;28;20483;-80
2024/01/17 08:03:43;;;;;;;18.43;14.00;;;;;;;-0.66;100.00;151202.88;5019823;28;20455;-79
2024/01/17 08:06:10;;;;;;;20.20;13.57;;;;;;;-0.59;100.00;151219.59;4999594;28;20902;-79
2024/01/17 08:08:38;;;;;;;20.40;14.10;;;;;;;-0.52;100.00;151237.53;5017923;28;20452;-79
2024/01/17 08:11:04;;;;;;;22.93;13.50;;;;;;;-0.46;100.00;151254.22;5001548;28;21047;-79
2024/01/17 08:13:33;;;;;;;20.70;15.27;;;;;;;-0.41;100.00;151267.03;5015097;28;20460;-79
2024/01/17 08:15:59;;;;;;;26.17;15.90;;;;;;;-0.41;100.00;151267.03;5001879;28;20478;-78
2024/01/17 08:18:26;;;;;;;23.70;15.73;;;;;;;-0.39;100.00;151270.88;5017923;28;20813;-78
2024/01/17 08:20:52;;;;;;;21.37;15.30;;;;;;;-0.40;100.00;151268.34;5018379;28;20958;-78
2024/01/17 08:23:19;;;;;;;20.00;14.40;;;;;;;-0.38;100.00;151273.44;5016426;28;20537;-79
2024/01/17 08:25:47;;;;;;;21.33;14.67;;;;;;;-0.34;100.00;151283.69;5017298;28;20969;-78
2024/01/17 08:28:13;;;;;;;21.90;14.70;;;;;;;-0.32;100.00;151288.84;5015217;28;20511;-78
2024/01/17 08:30:40;;;;;;;21.90;14.97;;;;;;;-0.29;100.00;151297.81;5016365;28;20913;-78
2024/01/17 08:33:06;;;;;;;20.07;13.53;;;;;;;-0.29;100.00;151296.56;5017045;28;20514;-78
2024/01/17 08:35:33;;;;;;;23.30;15.20;;;;;;;-0.26;100.00;151305.50;5000564;28;20888;-77
2024/01/17 08:38:00;;;;;;;24.07;15.17;;;;;;;-0.28;100.00;151300.41;5018189;28;20570;-78
2024/01/17 08:40:26;;;;;;;19.13;14.00;;;;;;;-0.24;100.00;151309.38;4999152;28;20452;-78
2024/01/17 08:42:54;;;;;;;22.77;14.30;;;;;;;-0.23;100.00;151313.22;5016684;28;20799;-78
2024/01/17 08:45:20;;;;;;;21.90;13.97;;;;;;;-0.22;100.00;151314.50;5000235;28;20962;-78
2024/01/17 08:47:47;;;;;;;19.83;14.20;;;;;;;-0.20;100.00;151320.91;4997585;28;21503;-79
2024/01/17 08:50:14;;;;;;;18.47;13.73;;;;;;;-0.16;100.00;151329.91;5015675;28;20460;-79
2024/01/17 08:52:41;;;;;;;16.43;13.30;;;;;;;-0.15;100.00;151333.75;5018513;28;20932;-78
2024/01/17 08:55:09;;;;;;;18.27;12.73;;;;;;;-0.15;100.00;151333.75;5017302;28;20483;-78
2024/01/17 08:57:37;;;;;;;21.30;14.17;;;;;;;-0.14;100.00;151336.34;5000413;28;20549;-78
2024/01/17 09:00:06;;;;;;;18.93;13.87;;;;;;;-0.14;100.00;151336.34;5021362;28;20483;-78
2024/01/17 09:02:33;;;;;;;21.57;13.83;;;;;;;-0.08;100.00;151351.69;5016134;28;20471;-78
2024/01/17 09:05:00;;;;;;;19.30;13.60;;;;;;;-0.08;100.00;151350.44;5003774;28;20453;-78
2024/01/17 09:07:26;;;;;;;19.97;13.60;;;;;;;-0.04;100.00;151360.69;4988081;28;20457;-79
2024/01/17 09:09:53;;;;;;;19.90;13.60;;;;;;;0.04;100.00;151381.22;4991218;28;20456;-78
2024/01/17 09:12:19;;;;;;;17.60;12.70;;;;;;;0.06;100.00;151386.34;4999443;28;20471;-79
2024/01/17 09:14:46;;;;;;;18.83;12.03;;;;;;;0.09;100.00;151392.75;5022783;28;20502;-78
2024/01/17 09:17:14;;;;;;;18.40;11.87;;;;;;;0.12;100.00;151400.47;5008228;28;20456;-78
2024/01/17 09:19:42;;;;;;;18.00;11.70;;;;;;;0.14;100.00;151405.59;5016330;28;21045;-78
2024/01/17 09:22:09;;;;;;;17.47;11.70;;;;;;;0.14;100.00;151405.59;5016048;28;20455;-79
2024/01/17 09:24:36;;;;;;;18.40;11.67;;;;;;;0.13;100.00;151403.06;5014424;28;20455;-78
2024/01/17 09:27:03;;;;;;;15.93;12.50;;;;;;;0.12;100.00;151401.75;5014058;28;20946;-78
2024/01/17 09:29:33;;;;;;;15.93;11.63;;;;;;;0.10;100.00;151395.34;4998790;28;20835;-78
2024/01/17 09:32:00;;;;;;;15.43;12.07;;;;;;;0.13;100.00;151403.06;5016935;28;22051;-78
2024/01/17 09:34:28;;;;;;;16.33;11.43;;;;;;;0.17;100.00;151413.28;5014571;28;20474;-78
2024/01/17 09:36:54;;;;;;;19.10;12.80;;;;;;;0.16;100.00;151410.75;5016855;28;20451;-78
2024/01/17 09:39:21;;;;;;;18.23;12.87;;;;;;;0.22;100.00;151426.13;5017818;28;20459;-77
2024/01/17 09:41:47;;;;;;;15.17;11.83;;;;;;;0.29;100.00;151445.38;5015242;28;20495;-76
2024/01/17 09:44:14;;;;;;;17.23;10.77;;;;;;;0.37;100.00;151464.66;5015859;28;20780;-76
2024/01/17 09:46:42;;;;;;;16.60;11.93;;;;;;;0.45;100.00;151485.22;5014110;28;20730;-77
2024/01/17 09:49:08;;;;;;;17.03;12.00;;;;;;;0.51;100.00;151500.56;4989311;28;20456;-77
2024/01/17 09:51:36;;;;;;;14.20;11.10;;;;;;;0.54;100.00;151508.28;4998907;28;20639;-77
2024/01/17 09:54:04;;;;;;;14.10;12.13;;;;;;;0.58;100.00;151518.59;4998746;28;20468;-76
2024/01/17 09:56:32;;;;;;;16.30;11.80;;;;;;;0.62;100.00;151528.81;5014569;28;20562;-76
2024/01/17 09:59:00;;;;;;;20.07;12.50;;;;;;;0.68;100.00;151542.97;5000229;28;20792;-77
2024/01/17 10:01:27;;;;;;;16.60;12.27;;;;;;;0.74;100.00;151559.66;5013111;28;20454;-77
2024/01/17 10:03:56;;;;;;;17.30;13.60;;;;;;;0.74;100.00;151558.38;5012192;28;20461;-76
2024/01/17 10:06:24;;;;;;;15.93;13.60;;;;;;;0.74;100.00;151559.66;5013491;28;20457;-77
2024/01/17 10:08:53;;;;;;;21.50;14.53;;;;;;;0.73;100.00;151557.09;5013884;28;20902;-77
2024/01/17 10:11:20;;;;;;;15.77;11.87;;;;;;;0.81;100.00;151577.63;5000879;28;20455;-77
2024/01/17 10:13:47;;;;;;;14.73;11.13;;;;;;;0.88;100.00;151595.59;5012771;28;20451;-77
2024/01/17 10:16:14;;;;;;;15.30;12.00;;;;;;;0.87;100.00;151591.75;4983415;28;20830;-77
2024/01/17 10:18:40;;;;;;;13.60;10.93;;;;;;;0.90;100.00;151599.47;4998318;28;20462;-77
2024/01/17 10:21:07;;;;;;;11.63;10.47;;;;;;;0.98;100.00;151621.28;4999228;28;20447;-77
2024/01/17 10:23:34;;;;;;;14.80;11.83;;;;;;;0.98;100.00;151620.03;4997156;28;20594;-77
2024/01/17 10:26:04;;;;;;;15.87;12.20;;;;;;;0.92;100.00;151605.91;5017508;28;20451;-77
2024/01/17 10:28:33;;;;;;;19.70;11.33;;;;;;;0.90;100.00;151599.47;5015591;28;20459;-77
2024/01/17 10:31:00;;;;;;;15.00;13.00;;;;;;;0.88;100.00;151595.59;5015787;28;20470;-78
2024/01/17 10:33:27;;;;;;;13.83;11.17;;;;;;;0.84;100.00;151585.34;5014972;28;20492;-77
2024/01/17 10:35:54;;;;;;;16.07;12.40;;;;;;;0.86;100.00;151590.47;5016715;28;20488;-77
2024/01/17 10:38:21;;;;;;;15.50;11.97;;;;;;;0.81;100.00;151577.63;4998464;28;20483;-78
2024/01/17 10:40:47;;;;;;;17.10;12.27;;;;;;;0.81;100.00;151577.63;4998362;28;20488;-78
2024/01/17 10:43:16;;;;;;;15.60;11.57;;;;;;;0.90;100.00;151600.72;4996911;28;20977;-78
2024/01/17 10:45:44;;;;;;;14.87;11.77;;;;;;;0.93;100.00;151608.44;5017013;28;20447;-77
2024/01/17 10:48:11;;;;;;;17.50;12.20;;;;;;;0.95;100.00;151613.59;5014998;28;20940;-77
2024/01/17 10:50:37;;;;;;;18.23;11.57;;;;;;;1.00;100.00;151625.16;5000496;28;20463;-77
2024/01/17 10:53:06;;;;;;;15.33;10.40;;;;;;;1.04;100.00;151636.69;5000447;28;20473;-77
2024/01/17 10:55:35;;;;;;;11.83;10.00;;;;;;;1.02;100.00;151631.56;5000610;28;20578;-78
2024/01/17 10:58:06;;;;;;;15.27;11.47;;;;;;;1.02;100.00;151631.56;5015145;28;20981;-78
2024/01/17 11:00:35;;;;;;;13.80;10.57;;;;;;;1.03;100.00;151634.09;5016800;28;20459;-78
2024/01/17 11:03:08;;;;;;;12.90;9.57;;;;;;;1.05;100.00;151638.00;5013151;28;20452;-77